Alex Bay, NY

2:02 AM EDT on August 04, 2015 (GMT -0400)
APRSWXNET | | Change Station
CLOSE
Current Station
Personal Weather Station
Location: Fishers Landing, NY
Elevation: 303 ft
Nearby Weather Stations

Elev 303 ft 44.26 °N, 76.02 °W | Updated 23 minutes ago

Partly Cloudy
Partly Cloudy
62 °F
Feels Like 62 °F
N
1
Wind Variable Wind from SSW
Gusts 3.0 mph

Today
High -- | Low -- °F
--% Chance of Precip.
Yesterday
High -- | Low -- °F
Precip. -- in
5:53 AM 8:24 PM
Waning Gibbous, 80% visible
Pressure 29.78 in
Visibility 10.0 miles
Clouds Few 7000 ft
Mostly Cloudy 12000 ft
Dew Point 59 °F
Humidity 90%
Rainfall in
Snow Depth Not available.
UV 0 out of 12
Pollen 4.20 out of 12
Air Quality Not available.
Flu Activity Not available.
METAR KGTB 040558Z AUTO 20003KT 10SM FEW070 BKN120 17/15 A2978 RMK AO2 SLP082 T01670145 10214 20159 50002

More Conditions Fewer Conditions

Pressure 29.78 in
Visibility 10.0 miles
Clouds Few 7000 ft
Mostly Cloudy 12000 ft
Dew Point 59 °F
Humidity 90%
Rainfall in
Snow Depth Not available.
UV 0 out of 12
Pollen 4.20 out of 12
Air Quality Not available.
Flu Activity Not available.
METAR KGTB 040558Z AUTO 20003KT 10SM FEW070 BKN120 17/15 A2978 RMK AO2 SLP082 T01670145 10214 20159 50002

More Conditions Fewer Conditions

10-Day Weather Forecast

×

Almanac

Astronomy

Aug. 04, 2015 Rise Set
Actual Time
Civil Twilight
Nautical Twilight
Astronomical Twilight
Moon
Length of Visible Light
Length of Day
Tomorrow will be .
, % of the Moon is Illuminated

Today's Extremes

State Highs State Lows

Community

WunderPhotos

Upload Photos

1,843,870 photos uploaded!

WunderBlogs® & News

Nearby

Air Quality

  Air Quality AQ Index Pollutant
Not available.

Snow Depth

Station Depth Elevation

Earthquake Activity

City Distance Mag. Time & Date
Minimum magnitude displayed is 2.5.

Coastal Water Temperatures

Place Temperature

Stations

Nearby Weather Stations

Station Location Temp. Windchill Dew Point Humidity Wind Precip. Elev Updated Type